createdAt,value
2022-08-17T00:02:21.188Z,6.22
2022-08-17T00:05:42.369Z,7.00
2022-08-17T00:08:48.562Z,6.20
2022-08-17T00:12:03.970Z,7.90
2022-08-17T00:15:19.793Z,7.87
2022-08-17T00:19:01.528Z,7.75
2022-08-17T00:22:32.711Z,6.68
2022-08-17T00:25:15.731Z,7.97
2022-08-17T00:28:19.513Z,7.87
2022-08-17T00:31:25.205Z,6.55
2022-08-17T00:34:27.937Z,9.38
2022-08-17T00:37:33.058Z,7.03
2022-08-17T00:40:44.744Z,6.23
2022-08-17T00:43:49.538Z,9.57
2022-08-17T00:46:52.150Z,8.15
2022-08-17T00:49:55.434Z,7.60
2022-08-17T00:52:58.439Z,6.87
2022-08-17T00:56:03.838Z,7.43
2022-08-17T00:59:09.711Z,7.57
2022-08-17T01:02:16.275Z,6.68
2022-08-17T01:05:22.385Z,8.95
2022-08-17T01:08:28.056Z,8.13
2022-08-17T01:11:33.238Z,7.43
2022-08-17T01:14:38.029Z,6.37
2022-08-17T01:17:46.792Z,8.60
2022-08-17T01:21:01.278Z,7.53
2022-08-17T01:24:04.608Z,6.82
2022-08-17T01:27:10.092Z,7.37
2022-08-17T01:30:57.810Z,7.87
2022-08-17T01:33:37.911Z,8.32
2022-08-17T01:36:43.394Z,6.87
2022-08-17T01:39:55.309Z,6.93
2022-08-17T01:43:12.467Z,6.00
2022-08-17T01:46:22.287Z,7.00
2022-08-17T01:49:25.455Z,6.32
2022-08-17T01:52:29.024Z,8.90
2022-08-17T01:55:40.717Z,8.55
2022-08-17T01:58:46.467Z,7.30
2022-08-17T02:01:53.753Z,8.70
2022-08-17T02:04:56.845Z,6.78
2022-08-17T02:08:00.911Z,7.15
2022-08-17T02:11:12.407Z,8.63
2022-08-17T02:14:15.645Z,7.30
2022-08-17T02:17:19.203Z,6.50
2022-08-17T02:20:41.159Z,7.25
2022-08-17T02:23:49.011Z,6.47
2022-08-17T02:26:51.789Z,7.62
2022-08-17T02:29:58.164Z,5.80
2022-08-17T02:33:04.181Z,5.93
2022-08-17T02:36:12.688Z,6.95
2022-08-17T02:39:15.668Z,6.20
2022-08-17T02:42:25.739Z,6.20
2022-08-17T02:45:30.108Z,7.37
2022-08-17T02:48:33.240Z,5.10
2022-08-17T02:51:36.901Z,6.22
2022-08-17T02:54:42.388Z,6.32
2022-08-17T02:57:47.320Z,5.75
2022-08-17T03:00:50.762Z,6.00
2022-08-17T03:03:54.108Z,6.45
2022-08-17T03:06:57.285Z,5.47
2022-08-17T03:10:01.603Z,7.53
2022-08-17T03:13:05.207Z,6.85
2022-08-17T03:16:09.207Z,7.23
2022-08-17T03:19:12.685Z,7.10
2022-08-17T03:22:36.128Z,7.87
2022-08-17T03:25:43.359Z,6.20
2022-08-17T03:28:46.812Z,7.40
2022-08-17T03:31:50.926Z,7.03
2022-08-17T03:35:01.036Z,7.80
2022-08-17T03:38:05.474Z,6.97
2022-08-17T03:41:08.673Z,6.85
2022-08-17T03:44:12.183Z,5.95
2022-08-17T03:47:33.213Z,7.13
2022-08-17T03:50:56.420Z,6.90
2022-08-17T03:54:18.615Z,6.28
2022-08-17T03:57:21.762Z,6.37
2022-08-17T04:00:26.649Z,5.93
2022-08-17T04:03:32.889Z,5.87
2022-08-17T04:06:36.502Z,6.15
2022-08-17T04:09:39.721Z,7.20
2022-08-17T04:12:45.971Z,6.68
2022-08-17T04:15:50.123Z,7.28
2022-08-17T04:18:53.617Z,7.67
2022-08-17T04:22:00.915Z,6.47
2022-08-17T04:25:10.347Z,6.97
2022-08-17T04:28:15.990Z,8.20
2022-08-17T04:31:20.019Z,6.12
2022-08-17T04:34:24.890Z,7.30
2022-08-17T04:37:27.494Z,6.12
2022-08-17T04:40:50.348Z,5.90
2022-08-17T04:43:56.360Z,7.72
2022-08-17T04:47:00.074Z,6.95
2022-08-17T04:50:04.328Z,6.47
2022-08-17T04:53:08.875Z,7.62
2022-08-17T04:56:17.008Z,6.10
2022-08-17T04:59:23.068Z,6.78
2022-08-17T05:02:26.920Z,6.47
2022-08-17T05:05:32.779Z,5.97
2022-08-17T05:08:35.921Z,7.12
2022-08-17T05:11:39.852Z,6.57
2022-08-17T05:14:48.984Z,7.07
2022-08-17T05:17:52.702Z,5.72
2022-08-17T05:20:56.807Z,6.57
2022-08-17T05:24:00.561Z,7.80
2022-08-17T05:27:06.534Z,7.90
2022-08-17T05:30:10.881Z,6.28
2022-08-17T05:33:22.006Z,6.10
2022-08-17T05:36:43.063Z,8.23
2022-08-17T05:39:47.228Z,5.87
2022-08-17T05:42:50.898Z,6.57
2022-08-17T05:46:03.587Z,6.28
2022-08-17T05:49:08.213Z,5.60
2022-08-17T05:52:20.162Z,7.00
2022-08-17T05:55:43.577Z,7.55
2022-08-17T05:59:05.202Z,6.18
2022-08-17T06:02:47.463Z,6.85
2022-08-17T06:06:10.201Z,7.37
2022-08-17T06:09:30.200Z,8.43
2022-08-17T06:12:59.029Z,6.87
2022-08-17T06:16:32.930Z,7.25
2022-08-17T06:19:42.167Z,8.95
2022-08-17T06:22:48.577Z,8.18
2022-08-17T06:25:56.062Z,6.70
2022-08-17T06:29:18.784Z,7.10
2022-08-17T06:32:25.590Z,6.85
2022-08-17T06:35:40.312Z,9.75
2022-08-17T06:39:25.439Z,6.62
2022-08-17T06:43:02.055Z,8.37
2022-08-17T06:46:12.837Z,7.78
2022-08-17T06:49:33.236Z,6.37
2022-08-17T06:52:49.935Z,7.90
2022-08-17T06:56:09.210Z,6.53
2022-08-17T06:59:18.349Z,7.83
2022-08-17T07:02:53.081Z,9.77
2022-08-17T07:06:24.956Z,10.02
2022-08-17T07:09:37.813Z,8.02
2022-08-17T07:12:43.559Z,7.18
2022-08-17T07:15:48.104Z,6.53
2022-08-17T07:18:53.191Z,8.85
2022-08-17T07:22:00.625Z,10.48
2022-08-17T07:25:08.137Z,7.00
2022-08-17T07:28:13.891Z,9.38
2022-08-17T07:31:17.878Z,8.80
2022-08-17T07:34:20.733Z,8.52
2022-08-17T07:37:24.894Z,8.43
2022-08-17T07:40:33.665Z,6.70
2022-08-17T07:43:40.155Z,7.68
2022-08-17T07:47:12.698Z,7.20
2022-08-17T07:50:35.016Z,7.50
2022-08-17T07:53:39.220Z,7.97
2022-08-17T07:56:47.771Z,7.62
2022-08-17T08:00:00.068Z,7.82
2022-08-17T08:03:35.306Z,8.37
2022-08-17T08:06:49.743Z,9.07
2022-08-17T08:10:13.903Z,7.60
2022-08-17T08:13:28.985Z,8.20
2022-08-17T08:16:32.106Z,8.20
2022-08-17T08:19:35.437Z,8.27
2022-08-17T08:22:49.052Z,8.02
2022-08-17T08:26:20.951Z,7.72
2022-08-17T08:29:40.602Z,9.23
2022-08-17T08:33:22.091Z,9.63
2022-08-17T08:37:02.128Z,7.53
2022-08-17T08:39:59.045Z,7.47
2022-08-17T08:43:12.690Z,9.23
2022-08-17T08:46:32.411Z,9.73
2022-08-17T08:50:37.554Z,9.27
2022-08-17T08:53:50.653Z,10.90
2022-08-17T08:57:23.290Z,8.40
2022-08-17T09:00:26.989Z,10.75
2022-08-17T09:04:17.891Z,8.02
2022-08-17T09:07:38.623Z,8.90
2022-08-17T09:11:02.490Z,10.87
2022-08-17T09:14:25.522Z,8.77
2022-08-17T09:18:30.685Z,11.32
2022-08-17T09:21:55.936Z,11.18
2022-08-17T09:25:21.790Z,8.13
2022-08-17T09:28:38.202Z,8.77
2022-08-17T09:31:52.659Z,8.50
2022-08-17T09:35:00.335Z,7.53
2022-08-17T09:38:55.387Z,10.48
2022-08-17T09:42:07.671Z,9.23
2022-08-17T09:45:30.448Z,10.33
2022-08-17T09:48:36.393Z,19.42
2022-08-17T09:51:43.787Z,13.75
2022-08-17T09:54:47.370Z,15.13
2022-08-17T09:57:53.152Z,9.02
2022-08-17T10:01:21.741Z,8.80
2022-08-17T10:04:40.936Z,7.97
2022-08-17T10:08:21.835Z,8.10
2022-08-17T10:11:54.857Z,7.62
2022-08-17T10:15:17.401Z,7.75
2022-08-17T10:18:34.361Z,10.93
2022-08-17T10:22:01.122Z,7.62
2022-08-17T10:25:37.575Z,8.10
2022-08-17T10:28:49.221Z,7.62
2022-08-17T10:31:59.539Z,9.05
2022-08-17T10:35:11.646Z,6.33
2022-08-17T10:38:27.563Z,8.48
2022-08-17T10:41:41.259Z,6.87
2022-08-17T10:45:04.599Z,7.45
2022-08-17T10:48:07.871Z,9.60
2022-08-17T10:51:13.680Z,7.23
2022-08-17T10:54:25.692Z,6.62
2022-08-17T10:57:34.472Z,7.45
2022-08-17T11:00:40.882Z,6.12
2022-08-17T11:03:54.834Z,7.53
2022-08-17T11:07:21.559Z,9.53
2022-08-17T11:11:03.275Z,7.00
2022-08-17T11:14:19.174Z,6.10
2022-08-17T11:17:41.520Z,6.43
2022-08-17T11:21:02.241Z,8.07
2022-08-17T11:24:09.788Z,6.53
2022-08-17T11:27:35.164Z,6.97
2022-08-17T11:30:51.274Z,6.47
2022-08-17T11:34:04.689Z,9.00
2022-08-17T11:37:26.648Z,9.32
2022-08-17T11:40:52.668Z,7.07
2022-08-17T11:44:29.977Z,6.25
2022-08-17T11:48:26.496Z,6.80
2022-08-17T11:51:54.871Z,7.25
2022-08-17T11:55:17.655Z,6.65
2022-08-17T11:58:39.028Z,6.70
2022-08-17T12:01:55.963Z,8.20
2022-08-17T12:05:15.472Z,8.73
2022-08-17T12:08:21.365Z,6.85
2022-08-17T12:11:55.101Z,7.20
2022-08-17T12:15:15.669Z,6.60
2022-08-17T12:18:30.474Z,6.18
2022-08-17T12:21:51.866Z,6.15
2022-08-17T12:25:00.730Z,6.37
2022-08-17T12:28:07.581Z,8.10
2022-08-17T12:31:44.636Z,7.93
2022-08-17T12:34:50.133Z,5.90
2022-08-17T12:37:53.345Z,5.78
2022-08-17T12:41:00.304Z,6.40
2022-08-17T12:44:24.165Z,9.65
2022-08-17T12:47:30.080Z,6.33
2022-08-17T12:50:41.042Z,8.18
2022-08-17T12:53:52.619Z,12.05
2022-08-17T12:57:03.079Z,6.47
2022-08-17T13:00:16.375Z,8.48
2022-08-17T13:03:26.469Z,7.50
2022-08-17T13:06:34.949Z,6.43
2022-08-17T13:09:40.718Z,7.35
2022-08-17T13:12:44.160Z,6.47
2022-08-17T13:15:53.792Z,6.55
2022-08-17T13:19:15.964Z,6.97
2022-08-17T13:22:23.576Z,8.38
2022-08-17T13:25:27.171Z,7.25
2022-08-17T13:28:36.043Z,9.07
2022-08-17T13:31:49.783Z,7.05
2022-08-17T13:35:15.572Z,7.20
2022-08-17T13:38:51.040Z,5.53
2022-08-17T13:41:56.325Z,5.70
2022-08-17T13:45:00.102Z,6.32
2022-08-17T13:48:17.531Z,6.55
2022-08-17T13:51:29.412Z,9.93
2022-08-17T13:54:35.363Z,9.38
2022-08-17T13:57:40.352Z,6.47
2022-08-17T14:00:44.791Z,6.03
2022-08-17T14:03:48.150Z,9.95
2022-08-17T14:06:58.307Z,6.60
2022-08-17T14:10:12.736Z,6.62
2022-08-17T14:13:16.211Z,5.50
2022-08-17T14:16:20.762Z,5.85
2022-08-17T14:19:25.383Z,5.25
2022-08-17T14:22:31.945Z,6.70
2022-08-17T14:25:34.996Z,5.20
2022-08-17T14:28:38.924Z,6.45
2022-08-17T14:31:59.267Z,6.05
2022-08-17T14:35:04.611Z,5.40
2022-08-17T14:38:08.609Z,7.83
2022-08-17T14:41:11.774Z,8.25
2022-08-17T14:44:16.727Z,5.25
2022-08-17T14:47:20.807Z,6.65
2022-08-17T14:50:27.264Z,6.68
2022-08-17T14:53:32.034Z,5.83
2022-08-17T14:56:37.852Z,5.95
2022-08-17T14:59:41.598Z,7.00
2022-08-17T15:02:56.176Z,5.37
2022-08-17T15:05:59.665Z,6.60
2022-08-17T15:09:03.386Z,5.33
2022-08-17T15:12:07.484Z,6.18
2022-08-17T15:15:12.658Z,5.47
2022-08-17T15:18:16.486Z,8.00
2022-08-17T15:21:20.277Z,5.68
2022-08-17T15:24:24.047Z,6.27
2022-08-17T15:27:32.517Z,7.32
2022-08-17T15:30:37.029Z,7.45
2022-08-17T15:33:40.169Z,7.75
2022-08-17T15:36:49.044Z,5.78
2022-08-17T15:39:53.774Z,7.07
2022-08-17T15:42:57.934Z,6.62
2022-08-17T15:46:12.480Z,5.40
2022-08-17T15:49:17.214Z,5.95
2022-08-17T15:52:23.349Z,6.43
2022-08-17T15:55:28.667Z,6.20
2022-08-17T15:58:34.538Z,6.10
2022-08-17T16:03:01.200Z,5.35
2022-08-17T16:05:13.838Z,10.85
2022-08-17T16:08:21.333Z,5.50
2022-08-17T16:11:28.368Z,5.97
2022-08-17T16:14:33.942Z,7.32
2022-08-17T16:17:41.555Z,6.90
2022-08-17T16:20:46.035Z,5.82
2022-08-17T16:23:52.192Z,6.90
2022-08-17T16:26:55.602Z,6.90
2022-08-17T16:29:59.997Z,7.43
2022-08-17T16:33:06.078Z,5.93
2022-08-17T16:36:09.508Z,6.70
2022-08-17T16:39:13.520Z,6.22
2022-08-17T16:42:25.547Z,6.73
2022-08-17T16:45:40.003Z,6.40
2022-08-17T16:48:46.488Z,7.20
2022-08-17T16:51:49.925Z,5.95
2022-08-17T16:54:55.456Z,6.78
2022-08-17T16:57:58.841Z,5.47
2022-08-17T17:01:01.935Z,5.25
2022-08-17T17:04:06.203Z,5.32
2022-08-17T17:07:20.880Z,5.57
2022-08-17T17:10:29.784Z,6.00
2022-08-17T17:13:47.516Z,7.87
2022-08-17T17:17:13.648Z,6.55
2022-08-17T17:20:25.338Z,7.10
2022-08-17T17:23:54.744Z,7.28
2022-08-17T17:27:29.673Z,6.62
2022-08-17T17:30:42.768Z,6.20
2022-08-17T17:33:54.345Z,7.25
2022-08-17T17:37:03.443Z,4.70
2022-08-17T17:40:14.737Z,7.43
2022-08-17T17:43:38.262Z,7.12
2022-08-17T17:46:45.309Z,5.50
2022-08-17T17:49:52.659Z,5.57
2022-08-17T17:53:04.992Z,9.50
2022-08-17T17:56:43.169Z,7.55
2022-08-17T18:00:11.262Z,6.40
2022-08-17T18:03:42.760Z,5.63
2022-08-17T18:07:16.256Z,5.72
2022-08-17T18:10:49.262Z,6.10
2022-08-17T18:14:31.709Z,6.65
2022-08-17T18:17:36.530Z,8.98
2022-08-17T18:20:53.985Z,6.03
2022-08-17T18:24:02.470Z,7.65
2022-08-17T18:27:23.507Z,7.60
2022-08-17T18:30:29.982Z,4.65
2022-08-17T18:33:33.782Z,5.55
2022-08-17T18:36:39.889Z,5.17
2022-08-17T18:39:43.186Z,5.25
2022-08-17T18:43:11.167Z,6.95
2022-08-17T18:46:29.635Z,5.05
2022-08-17T18:49:34.261Z,7.75
2022-08-17T18:52:38.054Z,5.10
2022-08-17T18:55:42.850Z,4.60
2022-08-17T18:59:04.632Z,5.68
2022-08-17T19:02:24.876Z,5.75
2022-08-17T19:05:39.730Z,5.45
2022-08-17T19:08:44.432Z,5.50
2022-08-17T19:11:48.176Z,6.43
2022-08-17T19:14:53.145Z,6.62
2022-08-17T19:18:02.507Z,6.18
2022-08-17T19:21:38.373Z,6.95
2022-08-17T19:24:47.498Z,5.90
2022-08-17T19:28:22.535Z,5.85
2022-08-17T19:31:28.612Z,5.55
2022-08-17T19:34:34.672Z,6.60
2022-08-17T19:37:57.348Z,5.68
2022-08-17T19:41:24.020Z,4.97
2022-08-17T19:44:51.713Z,5.57
2022-08-17T19:48:14.873Z,6.12
2022-08-17T19:51:24.566Z,6.12
2022-08-17T19:54:38.220Z,4.90
2022-08-17T19:58:11.444Z,4.77
2022-08-17T20:01:34.836Z,7.00
2022-08-17T20:04:43.796Z,9.85
2022-08-17T20:07:56.834Z,4.57
2022-08-17T20:11:09.882Z,7.43
2022-08-17T20:14:41.391Z,5.60
2022-08-17T20:18:00.516Z,5.70
2022-08-17T20:21:27.572Z,6.05
2022-08-17T20:24:43.411Z,6.35
2022-08-17T20:28:22.028Z,5.12
2022-08-17T20:31:57.411Z,5.47
2022-08-17T20:35:27.736Z,5.47
2022-08-17T20:38:50.460Z,5.43
2022-08-17T20:42:08.091Z,8.52
2022-08-17T20:45:25.021Z,5.80
2022-08-17T20:48:38.288Z,6.60
2022-08-17T20:52:07.995Z,6.78
2022-08-17T20:55:51.181Z,7.03
2022-08-17T20:58:56.552Z,7.78
2022-08-17T21:02:18.702Z,6.28
2022-08-17T21:05:30.256Z,7.67
2022-08-17T21:08:34.919Z,8.15
2022-08-17T21:11:57.091Z,9.75
2022-08-17T21:15:09.103Z,8.68
2022-08-17T21:18:38.987Z,8.10
2022-08-17T21:21:46.602Z,6.93
2022-08-17T21:25:02.701Z,8.68
2022-08-17T21:28:23.350Z,9.10
2022-08-17T21:31:42.181Z,5.28
2022-08-17T21:35:08.961Z,7.50
2022-08-17T21:38:14.949Z,5.50
2022-08-17T21:41:35.219Z,5.68
2022-08-17T21:44:47.693Z,7.53
2022-08-17T21:48:09.008Z,8.20
2022-08-17T21:51:26.167Z,6.78
2022-08-17T21:54:35.938Z,6.00
2022-08-17T21:57:41.498Z,5.95
2022-08-17T22:01:18.051Z,5.72
2022-08-17T22:04:46.142Z,6.22
2022-08-17T22:07:51.370Z,6.43
2022-08-17T22:11:04.043Z,9.07
2022-08-17T22:14:17.554Z,8.75
2022-08-17T22:17:30.878Z,7.22
2022-08-17T22:20:34.834Z,8.75
2022-08-17T22:24:02.344Z,8.05
2022-08-17T22:27:11.660Z,9.30
2022-08-17T22:30:23.348Z,10.23
2022-08-17T22:33:40.603Z,9.82
2022-08-17T22:36:44.452Z,10.95
2022-08-17T22:39:57.313Z,9.30
2022-08-17T22:43:03.616Z,9.47
2022-08-17T22:46:08.771Z,10.35
2022-08-17T22:49:12.760Z,9.20
2022-08-17T22:52:15.819Z,11.68
2022-08-17T22:55:38.218Z,11.63
2022-08-17T22:59:14.743Z,10.07
2022-08-17T23:02:31.655Z,10.88
2022-08-17T23:05:35.317Z,11.70
2022-08-17T23:08:51.633Z,12.02
2022-08-17T23:11:58.725Z,13.38
2022-08-17T23:15:02.694Z,11.27
2022-08-17T23:18:06.673Z,11.43
2022-08-17T23:21:10.454Z,11.88
2022-08-17T23:24:22.825Z,11.70
2022-08-17T23:27:29.351Z,11.88
2022-08-17T23:30:35.510Z,14.40
2022-08-17T23:33:40.916Z,10.88
2022-08-17T23:36:51.314Z,12.98
2022-08-17T23:39:55.547Z,10.45
2022-08-17T23:42:58.397Z,11.10
2022-08-17T23:46:03.774Z,11.90
2022-08-17T23:49:06.941Z,11.95
2022-08-17T23:52:14.974Z,10.55
2022-08-17T23:55:19.277Z,11.00
2022-08-17T23:58:23.137Z,11.70
